»·PEaware :: N147AT KPHX-KTUS

N147AT :: KPHX-KTUS

FLIGHT INFORMATION

Flight Status: Arrived
Operator: Privately registered:
United States
More flights under this callsign
Pilot: Anonymous 18613 (18613)
Aircraft: CESSNA 172 SKYHAWK
(C172)
More flights by this aircraft type
Origin: KPHX Phoenix Sky Harbor Intl
United States
Destination: KTUS Tucson Intl
United States
More flights between these airports :: More routes between these airports
Route:
File this flight plan on PilotEdge
Remarks: VFR
Altitude:
(Current/Filed)
7,500ft
Speed:
(Current/Filed)
115kts
Departed: 06-May-18 12:39 PM
Arrived: 06-May-18 01:34 PM
Distance/Time
Traveled:
96nm/0:55
Distance/Time
To Go:
Arrived

Flight Plot

Page will automatically refresh every two minutes.

Flight plan parsing failed; only flown route is shown


Map Options




Map Legend


Flown Route
Filed Route
Departure Airport
Arrival Airport
Navaid (VOR, NDB)
Fix

Horizontal Profiles

Position Reports

Time Latitude Longitude Heading Altitude Ground
Speed
06-May-18 12:24 33.443408 -112.025643 89 1138ft 0kts
06-May-18 12:25 33.443408 -112.025643 89 1138ft 0kts
06-May-18 12:26 33.443408 -112.025643 89 1138ft 0kts
06-May-18 12:27 33.443408 -112.025643 89 1138ft 0kts
06-May-18 12:28 33.443408 -112.025643 89 1138ft 0kts
06-May-18 12:29 33.443408 -112.025643 89 1138ft 0kts
06-May-18 12:30 33.443408 -112.025643 89 1138ft 0kts
06-May-18 12:31 33.443408 -112.025643 89 1138ft 0kts
06-May-18 12:32 33.443408 -112.025643 89 1138ft 0kts
06-May-18 12:33 33.443408 -112.025643 89 1138ft 0kts
06-May-18 12:34 33.442393 -112.025368 179 1138ft 0kts
06-May-18 12:35 33.442393 -112.025368 179 1138ft 0kts
06-May-18 12:36 33.442062 -112.025484 221 1138ft 11kts
06-May-18 12:37 33.441679 -112.029616 186 1138ft 0kts
06-May-18 12:38 33.441553 -112.029633 185 1138ft 9kts
06-May-18 12:39 33.440778 -112.015110 89 1608ft 65kts
06-May-18 12:40 33.439948 -111.992443 104 2556ft 70kts
06-May-18 12:41 33.419384 -111.987491 175 3409ft 84kts
06-May-18 12:42 33.395918 -111.988039 170 4271ft 84kts
06-May-18 12:43 33.372665 -111.985855 163 5073ft 83kts
06-May-18 12:44 33.350222 -111.981721 166 5865ft 80kts
06-May-18 12:45 33.329117 -111.978124 166 6656ft 73kts
06-May-18 12:46 33.309670 -111.974795 167 7361ft 73kts
06-May-18 12:47 33.284094 -111.970654 169 7507ft 113kts
06-May-18 12:48 33.251673 -111.965700 169 7506ft 119kts
06-May-18 12:49 33.218555 -111.960522 169 7507ft 120kts
06-May-18 12:50 33.185364 -111.955263 169 7508ft 120kts
06-May-18 12:51 33.152238 -111.949986 169 7509ft 120kts
06-May-18 12:52 33.119237 -111.944718 169 7510ft 120kts
06-May-18 12:53 33.086159 -111.939442 169 7515ft 120kts
06-May-18 12:54 33.052771 -111.934114 168 7521ft 121kts
06-May-18 12:55 33.019054 -111.928736 168 7527ft 123kts
06-May-18 12:56 32.984909 -111.923295 167 7532ft 124kts
06-May-18 12:57 32.950408 -111.917761 167 7538ft 126kts
06-May-18 12:58 32.915531 -111.911835 166 7538ft 127kts
06-May-18 12:58 32.887183 -111.906344 154 7539ft 125kts
06-May-18 12:59 32.862883 -111.878549 128 7538ft 122kts
06-May-18 13:00 32.839537 -111.849209 133 7538ft 122kts
06-May-18 13:01 32.813681 -111.822769 135 7538ft 121kts
06-May-18 13:02 32.788682 -111.796539 134 7538ft 119kts
06-May-18 13:03 32.764165 -111.770066 134 7538ft 119kts
06-May-18 13:04 32.739469 -111.742965 133 7538ft 123kts
06-May-18 13:05 32.714303 -111.715178 133 7538ft 124kts
06-May-18 13:06 32.689060 -111.687260 133 7538ft 124kts
06-May-18 13:07 32.663769 -111.659278 133 7519ft 124kts
06-May-18 13:08 32.638446 -111.631263 133 7519ft 124kts
06-May-18 13:09 32.612811 -111.602926 133 7456ft 125kts
06-May-18 13:10 32.587434 -111.574879 133 7458ft 124kts
06-May-18 13:11 32.562110 -111.546913 133 7460ft 124kts
06-May-18 13:12 32.536789 -111.518972 133 7462ft 124kts
06-May-18 13:13 32.511432 -111.491013 133 7463ft 124kts
06-May-18 13:14 32.486077 -111.463080 133 7464ft 124kts
06-May-18 13:15 32.460675 -111.435118 133 7464ft 124kts
06-May-18 13:16 32.440576 -111.402255 124 7463ft 123kts
06-May-18 13:17 32.418351 -111.371134 128 7463ft 124kts
06-May-18 13:18 32.395177 -111.341857 131 7466ft 124kts
06-May-18 13:19 32.370930 -111.312673 132 7466ft 124kts
06-May-18 13:20 32.347180 -111.282970 126 7465ft 124kts
06-May-18 13:21 32.328137 -111.249071 121 7465ft 123kts
06-May-18 13:22 32.309295 -111.215302 121 7468ft 123kts
06-May-18 13:23 32.290716 -111.181576 121 7472ft 117kts
06-May-18 13:24 32.272433 -111.148205 121 6985ft 125kts
06-May-18 13:25 32.253342 -111.113327 121 6484ft 126kts
06-May-18 13:27 32.234075 -111.080597 128 5547ft 124kts
06-May-18 13:28 32.211199 -111.051474 131 4719ft 119kts
06-May-18 13:29 32.189086 -111.024697 139 4197ft 112kts
06-May-18 13:30 32.167304 -110.999148 138 3749ft 106kts
06-May-18 13:31 32.152416 -110.981698 138 3300ft 60kts
06-May-18 13:32 32.138812 -110.965929 134 3049ft 78kts
06-May-18 13:33 32.125263 -110.949989 135 2708ft 62kts
06-May-18 13:34 32.118538 -110.940947 359 2647ft 0kts
06-May-18 13:35 32.118542 -110.940947 359 2647ft 1kts
06-May-18 13:36 32.116269 -110.935966 136 2647ft 24kts

Navigation Log

Ident Type
Flight plan parsing failed, navigation log unavailable